Bospor — UBQP4 — position and weather

sailwx.info

Track history (hours):
 
Tides and Currents Weather Stations Pressure Air Temp Water Temp Dewpoint Dewpoint Depression Visibility Wind Speed Wind Dir Waves Ship Positions

Bospor

Last reported at 2017-Oct-19 16:00 UTC. Time now 2017-Oct-19 16:28 UTC.
Position N 45°22' E 036°40'.

Length 26 m; draft 1.8 m.

Type: Pilot. MMSI: 273394060.

Date/timePositionNaut miles runAvg speedWind from/ knotsBaromVisibWave heightAir tempDewpointWater temp
2017-Oct-19 16:00N 45°22' E 036°40'0 0.8
2017-Oct-19 15:30N 45°21' E 036°40'3 6.9
2017-Oct-19 15:00N 45°20' E 036°36'510.0
2017-Oct-19 14:28N 45°17' E 036°29'1 2.6
2017-Oct-19 14:00N 45°16' E 036°29'2 2.7
2017-Oct-19 13:25N 45°18' E 036°29'0 0.6
2017-Oct-19 12:57N 45°17' E 036°29'1 0.9
2017-Oct-19 12:20N 45°17' E 036°29'0 0.9
2017-Oct-19 12:00N 45°16' E 036°29'0 0.4
2017-Oct-19 11:29N 45°17' E 036°29'0 0.4
2017-Oct-19 10:55N 45°17' E 036°29'0 0.9
2017-Oct-19 10:22N 45°16' E 036°29'1 1.3
2017-Oct-19 09:57N 45°17' E 036°29'1 1.3
2017-Oct-19 09:30N 45°17' E 036°29'2 3.1
2017-Oct-19 08:58N 45°16' E 036°29'1 1.8
2017-Oct-19 08:31N 45°17' E 036°29'2 4.8
2017-Oct-19 08:00N 45°19' E 036°31'510.1
2017-Oct-19 07:30N 45°20' E 036°38'2 3.5
2017-Oct-19 07:00N 45°21' E 036°40'1 1.3
2017-Oct-19 06:30N 45°20' E 036°40'0 0.0
2017-Oct-19 06:00N 45°20' E 036°40'0 0.0
2017-Oct-19 05:30N 45°20' E 036°40'0 0.0
2017-Oct-19 05:00N 45°20' E 036°40'0 0.0
2017-Oct-19 04:30N 45°20' E 036°40'1 2.0
2017-Oct-19 04:00N 45°21' E 036°40'0 0.5
2017-Oct-19 03:30N 45°21' E 036°40'3 6.3
2017-Oct-19 03:00N 45°20' E 036°36'6 2.6
2017-Oct-19 00:49N 45°17' E 036°29'0 0.8
2017-Oct-19 00:30N 45°17' E 036°29'1 1.2
2017-Oct-18 23:52N 45°17' E 036°29'1 2.8
2017-Oct-18 23:30N 45°16' E 036°29'1 0.9
2017-Oct-18 22:56N 45°17' E 036°29'0 0.6
2017-Oct-18 22:28N 45°16' E 036°29'2 1.6
2017-Oct-18 21:05N 45°18' E 036°30'110.2
2017-Oct-18 21:00N 45°19' E 036°31'510.4
2017-Oct-18 20:30N 45°20' E 036°38'1 1.0
2017-Oct-18 20:00N 45°21' E 036°39'1 1.8
2017-Oct-18 19:28N 45°20' E 036°40'0 0.0
2017-Oct-18 18:58N 45°20' E 036°40'0 0.0
2017-Oct-18 18:31N 45°20' E 036°40'0 0.0
2017-Oct-18 18:01N 45°20' E 036°40'0 0.0
2017-Oct-18 17:28N 45°20' E 036°40'0 0.0
2017-Oct-18 16:52N 45°20' E 036°40'1 3.4
2017-Oct-18 16:30N 45°21' E 036°40'0 0.4
2017-Oct-18 16:01N 45°21' E 036°40'0 0.8
2017-Oct-18 15:30N 45°21' E 036°40'1 1.3
2017-Oct-18 15:00N 45°20' E 036°40'0 0.0
2017-Oct-18 14:00N 45°20' E 036°40'0 0.0
2017-Oct-18 13:30N 45°20' E 036°40'0 0.0
2017-Oct-18 13:00N 45°20' E 036°40'0 0.0
2017-Oct-18 12:30N 45°20' E 036°40'0 0.2
2017-Oct-18 11:57N 45°20' E 036°40'0 0.0
2017-Oct-18 11:30N 45°20' E 036°40'0 0.4
2017-Oct-18 11:01N 45°20' E 036°40'0 0.1
2017-Oct-18 10:30N 45°20' E 036°40'0 0.0
2017-Oct-18 10:00N 45°20' E 036°40'0 0.0
2017-Oct-18 09:30N 45°20' E 036°40'0 0.0
2017-Oct-18 09:00N 45°20' E 036°40'0 0.0
2017-Oct-18 08:30N 45°20' E 036°40'0 0.0
2017-Oct-18 08:00N 45°20' E 036°40'0 0.0
2017-Oct-18 07:30N 45°20' E 036°40'0 0.0
2017-Oct-18 07:00N 45°20' E 036°40'0 0.0
2017-Oct-18 06:30N 45°20' E 036°40'0 0.0
2017-Oct-18 06:00N 45°20' E 036°40'0 0.0
2017-Oct-18 05:30N 45°20' E 036°40'0 0.0
2017-Oct-18 05:00N 45°20' E 036°40'0 0.0
2017-Oct-18 04:30N 45°20' E 036°40'0 0.0
2017-Oct-18 04:00N 45°20' E 036°40'0 0.0
2017-Oct-18 03:27N 45°20' E 036°40'0 0.0
2017-Oct-18 03:00N 45°20' E 036°40'0 0.0
2017-Oct-18 02:30N 45°20' E 036°40'0 0.0
2017-Oct-18 02:00N 45°20' E 036°40'0 0.0
2017-Oct-18 01:30N 45°20' E 036°40'0 0.0
2017-Oct-18 01:00N 45°20' E 036°40'0 0.0
2017-Oct-18 00:27N 45°20' E 036°40'1 1.8
2017-Oct-18 00:00N 45°21' E 036°39'1 1.5
2017-Oct-17 23:28N 45°20' E 036°40'0 0.0
2017-Oct-17 22:55N 45°20' E 036°40'0 0.0
2017-Oct-17 22:28N 45°20' E 036°40'0 0.0
2017-Oct-17 21:55N 45°20' E 036°40'0 0.0
2017-Oct-17 21:28N 45°20' E 036°40'0 0.0
2017-Oct-17 20:58N 45°20' E 036°40'0 0.0
2017-Oct-17 20:28N 45°20' E 036°40'0 0.0
2017-Oct-17 19:58N 45°20' E 036°40'0 0.0
2017-Oct-17 19:28N 45°20' E 036°40'0 0.0
2017-Oct-17 18:58N 45°20' E 036°40'0 0.0
2017-Oct-17 18:28N 45°20' E 036°40'0 0.0
2017-Oct-17 17:58N 45°20' E 036°40'0 0.0
2017-Oct-17 17:28N 45°20' E 036°40'0 0.0
2017-Oct-17 16:58N 45°20' E 036°40'1 2.6
2017-Oct-17 16:28N 45°21' E 036°41'0 0.0
2017-Oct-17 15:58N 45°21' E 036°41'0 0.0
2017-Oct-17 15:28N 45°21' E 036°41'2 4.8
2017-Oct-17 15:01N 45°20' E 036°38'510.4
2017-Oct-17 14:31N 45°19' E 036°31'3 5.4
2017-Oct-17 14:00N 45°17' E 036°29'1 1.2
2017-Oct-17 13:30N 45°17' E 036°29'1 0.8
2017-Oct-17 12:46N 45°17' E 036°29'0 1.1
2017-Oct-17 12:24N 45°17' E 036°29'0 0.2
2017-Oct-17 12:00N 45°17' E 036°29'0 0.3
2017-Oct-17 11:30N 45°17' E 036°29'0 0.5
2017-Oct-17 10:44N 45°17' E 036°29'0 1.0
2017-Oct-17 10:23N 45°17' E 036°29'0 0.3
2017-Oct-17 09:55N 45°17' E 036°29'1 1.2
2017-Oct-17 09:11N 45°18' E 036°29'0 0.8
2017-Oct-17 08:51N 45°17' E 036°29'1 2.3
2017-Oct-17 08:27N 45°18' E 036°30'4 8.5
2017-Oct-17 08:00N 45°19' E 036°35'4 7.9
2017-Oct-17 07:30N 45°21' E 036°40'0 0.7
2017-Oct-17 07:00N 45°21' E 036°40'0 0.8
2017-Oct-17 06:29N 45°20' E 036°40'0 0.0
2017-Oct-17 06:00N 45°20' E 036°40'0 0.3
2017-Oct-17 05:30N 45°20' E 036°40'0 0.3
2017-Oct-17 04:58N 45°20' E 036°40'0 0.0
2017-Oct-17 04:28N 45°20' E 036°40'0 0.0
2017-Oct-17 03:58N 45°20' E 036°40'0 0.0
2017-Oct-17 03:16N 45°20' E 036°40'0 0.0
2017-Oct-17 02:58N 45°20' E 036°40'0 0.0
2017-Oct-17 02:25N 45°20' E 036°40'0 0.0
2017-Oct-17 01:58N 45°20' E 036°40'0 0.0
2017-Oct-17 01:25N 45°20' E 036°40'0 0.0
2017-Oct-17 00:58N 45°20' E 036°40'0 0.0
2017-Oct-17 00:28N 45°20' E 036°40'0 0.0
2017-Oct-16 23:58N 45°20' E 036°40'0 0.0
2017-Oct-16 23:28N 45°20' E 036°40'0 0.0
2017-Oct-16 22:59N 45°20' E 036°40'0 0.0
2017-Oct-16 22:26N 45°20' E 036°40'0 0.0
2017-Oct-16 21:59N 45°20' E 036°40'0 0.0
2017-Oct-16 21:29N 45°20' E 036°40'0 0.0
2017-Oct-16 20:59N 45°20' E 036°40'0 0.0
2017-Oct-16 20:29N 45°20' E 036°40'0 0.0
2017-Oct-16 19:59N 45°20' E 036°40'0 0.0
2017-Oct-16 19:29N 45°20' E 036°40'0 0.0
2017-Oct-16 18:59N 45°20' E 036°40'0 0.0
2017-Oct-16 18:29N 45°20' E 036°40'0 0.0
2017-Oct-16 17:59N 45°20' E 036°40'0 0.4
2017-Oct-16 17:29N 45°21' E 036°40'0 0.0
2017-Oct-16 16:59N 45°21' E 036°40'0 0.0
2017-Oct-16 16:29N 45°21' E 036°40'0 0.0
2017-Oct-16 15:59N 45°21' E 036°40'0 0.0
2017-Oct-16 15:29N 45°21' E 036°40'0 0.0
2017-Oct-16 14:59N 45°21' E 036°40'0 0.0
2017-Oct-16 14:29N 45°21' E 036°40'0 0.0
2017-Oct-16 13:29N 45°21' E 036°40'0 0.0
2017-Oct-16 12:59N 45°21' E 036°40'0 0.0
2017-Oct-16 12:29N 45°21' E 036°40'0 0.0
2017-Oct-16 11:59N 45°21' E 036°40'0 0.0
2017-Oct-16 11:29N 45°21' E 036°40'0 0.0
2017-Oct-16 10:58N 45°21' E 036°40'0 0.0
2017-Oct-16 10:28N 45°21' E 036°40'0 0.0
2017-Oct-16 09:58N 45°21' E 036°40'0 0.0
2017-Oct-16 09:28N 45°21' E 036°40'0 0.0
2017-Oct-16 08:58N 45°21' E 036°40'0 0.0
2017-Oct-16 08:29N 45°21' E 036°40'0 0.0
2017-Oct-16 07:59N 45°21' E 036°40'0 0.0
2017-Oct-16 07:29N 45°21' E 036°40'0 0.0
2017-Oct-16 07:00N 45°21' E 036°40'0 0.0
2017-Oct-16 06:30N 45°21' E 036°40'0 0.0
2017-Oct-16 06:00N 45°21' E 036°40'0 0.0
2017-Oct-16 05:30N 45°21' E 036°40'0 0.4
2017-Oct-16 05:00N 45°20' E 036°40'0 0.0
2017-Oct-16 04:31N 45°20' E 036°40'0 0.0
2017-Oct-16 04:00N 45°20' E 036°40'0 0.0
2017-Oct-16 03:30N 45°20' E 036°40'0 0.0
2017-Oct-16 03:00N 45°20' E 036°40'0 0.0
2017-Oct-16 02:25N 45°20' E 036°40'0 0.0
2017-Oct-16 01:59N 45°20' E 036°40'0 0.0
2017-Oct-16 01:28N 45°20' E 036°40'0 0.0
2017-Oct-16 00:58N 45°20' E 036°40'0 0.0
2017-Oct-16 00:28N 45°20' E 036°40'0 0.0
2017-Oct-15 23:58N 45°20' E 036°40'0 0.0
2017-Oct-15 23:28N 45°20' E 036°40'0 0.0
2017-Oct-15 22:58N 45°20' E 036°40'0 0.0
2017-Oct-15 22:28N 45°20' E 036°40'0 0.0
2017-Oct-15 22:00N 45°20' E 036°40'0 0.0
2017-Oct-15 21:29N 45°20' E 036°40'0 0.0
2017-Oct-15 20:59N 45°20' E 036°40'0 0.0
2017-Oct-15 20:29N 45°20' E 036°40'0 0.0
2017-Oct-15 19:59N 45°20' E 036°40'0 0.0
2017-Oct-15 19:29N 45°20' E 036°40'0 0.0
2017-Oct-15 18:59N 45°20' E 036°40'0 0.0
2017-Oct-15 18:29N 45°20' E 036°40'0 0.0
2017-Oct-15 17:59N 45°20' E 036°40'0 0.0
2017-Oct-15 17:29N 45°20' E 036°40'0 0.0
2017-Oct-15 16:59N 45°20' E 036°40'0 0.0
2017-Oct-15 16:29N 45°20' E 036°40'0 0.0
2017-Oct-15 15:59N 45°20' E 036°40'1 1.8
2017-Oct-15 15:30N 45°21' E 036°40'0 0.2
2017-Oct-15 15:00N 45°21' E 036°40'9 8.9
2017-Oct-15 13:58N 45°17' E 036°29'0 0.3
2017-Oct-15 13:24N 45°16' E 036°29'1 1.7
2017-Oct-15 13:00N 45°17' E 036°29'2 2.9
2017-Oct-15 12:28N 45°18' E 036°30'4 9.0
2017-Oct-15 12:00N 45°20' E 036°36'3 5.4
2017-Oct-15 11:25N 45°20' E 036°40'0 0.0
2017-Oct-15 10:58N 45°20' E 036°40'0 0.0
2017-Oct-15 10:28N 45°20' E 036°40'0 0.0
2017-Oct-15 09:58N 45°20' E 036°40'0 0.0
2017-Oct-15 09:28N 45°20' E 036°40'0 0.0
2017-Oct-15 08:58N 45°20' E 036°40'0 0.0
2017-Oct-15 08:30N 45°20' E 036°40'0 0.2
2017-Oct-15 08:00N 45°20' E 036°40'1 1.9
2017-Oct-15 07:30N 45°21' E 036°40'0 0.5
2017-Oct-15 06:57N 45°21' E 036°40'1 2.0
2017-Oct-15 06:29N 45°20' E 036°40'0 0.0
2017-Oct-15 05:59N 45°20' E 036°40'0 0.0
2017-Oct-15 05:29N 45°20' E 036°40'0 0.0
2017-Oct-15 04:59N 45°20' E 036°40'0 0.5
2017-Oct-15 04:30N 45°20' E 036°40'1 2.2
2017-Oct-15 04:00N 45°20' E 036°38'1 1.4
2017-Oct-15 03:30N 45°21' E 036°39'1 1.2
2017-Oct-15 02:58N 45°20' E 036°40'0 0.0
2017-Oct-15 02:28N 45°20' E 036°40'0 0.0
2017-Oct-15 01:58N 45°20' E 036°40'0 0.0
2017-Oct-15 01:28N 45°20' E 036°40'0 0.0
2017-Oct-15 01:01N 45°20' E 036°40'1 2.8
2017-Oct-15 00:30N 45°20' E 036°38'2 3.5
2017-Oct-15 00:01N 45°22' E 036°40'1 1.4
2017-Oct-14 23:30N 45°21' E 036°40'1 1.3
2017-Oct-14 22:59N 45°20' E 036°40'0 0.0
2017-Oct-14 22:29N 45°20' E 036°40'0 0.0
2017-Oct-14 21:59N 45°20' E 036°40'0 0.0
2017-Oct-14 21:30N 45°20' E 036°40'0 0.0
2017-Oct-14 20:59N 45°20' E 036°40'0 0.0
2017-Oct-14 20:29N 45°20' E 036°40'0 0.0
2017-Oct-14 19:59N 45°20' E 036°40'0 0.0
2017-Oct-14 19:29N 45°20' E 036°40'0 0.0
2017-Oct-14 18:59N 45°20' E 036°40'0 0.0
2017-Oct-14 18:29N 45°20' E 036°40'0 0.0
2017-Oct-14 17:59N 45°20' E 036°40'1 1.7
2017-Oct-14 17:31N 45°21' E 036°39'610.6
2017-Oct-14 16:59N 45°19' E 036°32'4 4.1
2017-Oct-14 16:01N 45°16' E 036°29'0 1.4
2017-Oct-14 16:00N 45°16' E 036°29'1 1.3
2017-Oct-14 15:21N 45°16' E 036°29'1 0.6
2017-Oct-14 14:28N 45°17' E 036°29'1 1.0
2017-Oct-14 13:30N 45°18' E 036°29'3 6.8
2017-Oct-14 13:00N 45°19' E 036°34'5 9.9
2017-Oct-14 12:30N 45°21' E 036°40'1 2.0
2017-Oct-14 12:00N 45°22' E 036°41'2 3.1
2017-Oct-14 11:31N 45°21' E 036°39'1 1.4
2017-Oct-14 10:58N 45°20' E 036°40'0 0.0
2017-Oct-14 10:28N 45°20' E 036°40'0 0.0
2017-Oct-14 09:58N 45°20' E 036°40'0 0.0
2017-Oct-14 09:28N 45°20' E 036°40'0 0.0
2017-Oct-14 08:58N 45°20' E 036°40'0 0.0
2017-Oct-14 08:25N 45°20' E 036°40'0 0.0
2017-Oct-14 07:59N 45°20' E 036°40'0 0.0
2017-Oct-14 07:30N 45°20' E 036°40'2 3.3
2017-Oct-14 07:00N 45°22' E 036°40'2 2.7
2017-Oct-14 06:25N 45°20' E 036°40'0 0.0
2017-Oct-14 05:58N 45°20' E 036°40'0 0.0
2017-Oct-14 05:25N 45°20' E 036°40'0 0.0
2017-Oct-14 04:58N 45°20' E 036°40'0 0.0
2017-Oct-14 04:28N 45°20' E 036°40'0 0.0
2017-Oct-14 03:58N 45°20' E 036°40'0 0.0
2017-Oct-14 03:28N 45°20' E 036°40'0 0.0
2017-Oct-14 02:58N 45°20' E 036°40'0 0.0
2017-Oct-14 02:28N 45°20' E 036°40'0 0.0
2017-Oct-14 01:58N 45°20' E 036°40'0 0.0
2017-Oct-14 01:28N 45°20' E 036°40'0 0.0
2017-Oct-14 00:55N 45°20' E 036°40'0 0.0
2017-Oct-14 00:28N 45°20' E 036°40'0 0.0
2017-Oct-13 23:58N 45°20' E 036°40'0 0.0
2017-Oct-13 23:28N 45°20' E 036°40'0 0.0
2017-Oct-13 22:58N 45°20' E 036°40'0 0.2
2017-Oct-13 22:29N 45°20' E 036°40'0 0.0
2017-Oct-13 21:59N 45°20' E 036°40'0 0.0
2017-Oct-13 21:29N 45°20' E 036°40'0 0.2
2017-Oct-13 21:00N 45°20' E 036°40'0 0.0
2017-Oct-13 20:30N 45°20' E 036°40'0 0.0
2017-Oct-13 20:00N 45°20' E 036°40'0 0.0
2017-Oct-13 19:30N 45°20' E 036°40'0 0.0
2017-Oct-13 19:00N 45°20' E 036°40'0 0.0
2017-Oct-13 18:30N 45°20' E 036°40'0 0.0
2017-Oct-13 18:00N 45°20' E 036°40'0 0.0
2017-Oct-13 17:30N 45°20' E 036°40'0 0.0
2017-Oct-13 17:00N 45°20' E 036°40'0 0.0
2017-Oct-13 16:30N 45°20' E 036°40'0 0.0
2017-Oct-13 16:00N 45°20' E 036°40'0 0.0
2017-Oct-13 15:30N 45°20' E 036°40'2 4.4
2017-Oct-13 15:01N 45°20' E 036°37'711.1
2017-Oct-13 14:26N 45°17' E 036°29'0 0.3
2017-Oct-13 13:34N 45°17' E 036°29'0 1.4
2017-Oct-13 13:28N 45°17' E 036°29'0 0.4
2017-Oct-13 13:00N 45°17' E 036°29'0 0.5
2017-Oct-13 12:30N 45°17' E 036°29'0 0.5
2017-Oct-13 11:56N 45°17' E 036°29'1 0.9
2017-Oct-13 10:37N 45°16' E 036°28'1 8.7
2017-Oct-13 10:31N 45°17' E 036°29'2 4.0
2017-Oct-13 10:00N 45°18' E 036°30'4 8.3
2017-Oct-13 09:30N 45°20' E 036°36'3 6.3
2017-Oct-13 08:58N 45°20' E 036°40'0 0.0
2017-Oct-13 08:28N 45°20' E 036°40'0 0.0
2017-Oct-13 08:01N 45°20' E 036°40'0 0.0
2017-Oct-13 07:31N 45°20' E 036°40'0 0.0
2017-Oct-13 07:01N 45°20' E 036°40'0 0.0
2017-Oct-13 06:31N 45°20' E 036°40'0 0.0
2017-Oct-13 06:01N 45°20' E 036°40'0 0.0
2017-Oct-13 05:31N 45°20' E 036°40'0 0.0
2017-Oct-13 05:00N 45°20' E 036°40'0 0.0
2017-Oct-13 04:30N 45°20' E 036°40'0 0.0
2017-Oct-13 04:00N 45°20' E 036°40'0 0.0
2017-Oct-13 03:30N 45°20' E 036°40'0 0.0
2017-Oct-13 03:00N 45°20' E 036°40'0 0.0
2017-Oct-13 02:27N 45°20' E 036°40'0 0.0
2017-Oct-13 01:57N 45°20' E 036°40'0 0.0
2017-Oct-13 01:30N 45°20' E 036°40'0 0.0
2017-Oct-13 01:00N 45°20' E 036°40'0 0.0
2017-Oct-13 00:30N 45°20' E 036°40'0 0.0
2017-Oct-13 00:01N 45°20' E 036°40'0 0.0
2017-Oct-12 23:30N 45°20' E 036°40'0 0.0
2017-Oct-12 23:00N 45°20' E 036°40'0 0.0
2017-Oct-12 22:30N 45°20' E 036°40'0 0.0
2017-Oct-12 22:00N 45°20' E 036°40'0 0.0
2017-Oct-12 21:30N 45°20' E 036°40'0 0.0
2017-Oct-12 21:00N 45°20' E 036°40'0 0.0
2017-Oct-12 20:31N 45°20' E 036°40'0 0.0
2017-Oct-12 20:00N 45°20' E 036°40'0 0.0
2017-Oct-12 19:27N 45°20' E 036°40'0 0.0
2017-Oct-12 19:00N 45°20' E 036°40'0 0.0
2017-Oct-12 18:30N 45°20' E 036°40'0 0.0
2017-Oct-12 18:00N 45°20' E 036°40'0 0.0
2017-Oct-12 17:30N 45°20' E 036°40'0 0.0
2017-Oct-12 17:00N 45°20' E 036°40'0 0.0
2017-Oct-12 16:30N 45°20' E 036°40'0 0.0
2017-Oct-12 16:00N 45°20' E 036°40'0 0.0
2017-Oct-12 15:30N 45°20' E 036°40'0 0.0
2017-Oct-12 15:00N 45°20' E 036°40'0 0.0
2017-Oct-12 14:30N 45°20' E 036°40'0 0.0
2017-Oct-12 14:00N 45°20' E 036°40'0 0.0
2017-Oct-12 13:30N 45°20' E 036°40'0 0.0
2017-Oct-12 13:00N 45°20' E 036°40'0 0.0
2017-Oct-12 12:30N 45°20' E 036°40'0 0.0
2017-Oct-12 11:54N 45°20' E 036°40'0 0.0
2017-Oct-12 11:30N 45°20' E 036°40'0 0.0
2017-Oct-12 10:57N 45°20' E 036°40'0 0.0
2017-Oct-12 10:30N 45°20' E 036°40'0 0.0
2017-Oct-12 09:57N 45°20' E 036°40'0 0.0
2017-Oct-12 09:30N 45°20' E 036°40'0 0.0
2017-Oct-12 09:00N 45°20' E 036°40'0 0.0
2017-Oct-12 08:30N 45°20' E 036°40'0 0.0
2017-Oct-12 08:00N 45°20' E 036°40'0 0.0
2017-Oct-12 07:30N 45°20' E 036°40'0 0.0
2017-Oct-12 07:00N 45°20' E 036°40'0 0.0
2017-Oct-12 06:27N 45°20' E 036°40'0 0.0
2017-Oct-12 06:00N 45°20' E 036°40'0 0.0
2017-Oct-12 05:30N 45°20' E 036°40'0 0.0
2017-Oct-12 05:00N 45°20' E 036°40'0 0.0
2017-Oct-12 04:27N 45°20' E 036°40'0 0.0
2017-Oct-12 04:00N 45°20' E 036°40'0 0.0
2017-Oct-12 03:30N 45°20' E 036°40'0 0.0
2017-Oct-12 03:00N 45°20' E 036°40'0 0.0
2017-Oct-12 02:30N 45°20' E 036°40'0 0.0
2017-Oct-12 02:00N 45°20' E 036°40'0 0.0
2017-Oct-12 01:30N 45°20' E 036°40'0 0.0
2017-Oct-12 00:57N 45°20' E 036°40'0 0.0
2017-Oct-12 00:30N 45°20' E 036°40'0 0.0
2017-Oct-12 00:00N 45°20' E 036°40'0 0.0
2017-Oct-11 23:30N 45°20' E 036°40'0 0.0
2017-Oct-11 23:00N 45°20' E 036°40'0 0.0
2017-Oct-11 22:30N 45°20' E 036°40'0 0.0
2017-Oct-11 22:00N 45°20' E 036°40'0 0.0
2017-Oct-11 21:30N 45°20' E 036°40'0 0.0
2017-Oct-11 21:00N 45°20' E 036°40'0 0.0
2017-Oct-11 20:30N 45°20' E 036°40'0 0.0
2017-Oct-11 20:00N 45°20' E 036°40'0 0.0
2017-Oct-11 19:30N 45°20' E 036°40'0 0.0
2017-Oct-11 19:00N 45°20' E 036°40'0 0.0
2017-Oct-11 18:30N 45°20' E 036°40'0 0.0
2017-Oct-11 18:00N 45°20' E 036°40'0 0.0
2017-Oct-11 17:30N 45°20' E 036°40'0 0.0
2017-Oct-11 17:00N 45°20' E 036°40'0 0.0
2017-Oct-11 00:00N 45°20' E 036°40'0 0.0
2017-Oct-10 23:30N 45°20' E 036°40'0 0.0
2017-Oct-10 23:00N 45°20' E 036°40'0 0.0
2017-Oct-10 22:30N 45°20' E 036°40'0 0.0
2017-Oct-10 22:00N 45°20' E 036°40'0 0.0
2017-Oct-10 21:30N 45°20' E 036°40'0 0.0
2017-Oct-10 21:00N 45°20' E 036°40'0 0.0
2017-Oct-10 20:30N 45°20' E 036°40'0 0.0
2017-Oct-10 20:00N 45°20' E 036°40'0 0.0
2017-Oct-10 19:30N 45°20' E 036°40'0 0.0
2017-Oct-10 19:00N 45°20' E 036°40'0 0.0
2017-Oct-10 18:31N 45°20' E 036°40'0 0.0
2017-Oct-10 18:00N 45°20' E 036°40'0 0.0
2017-Oct-10 17:30N 45°20' E 036°40'0 0.0
2017-Oct-10 17:00N 45°20' E 036°40'2 4.8
2017-Oct-10 16:30N 45°20' E 036°37'10 1.4
2017-Oct-10 09:38N 45°11' E 036°31'311.0
2017-Oct-10 09:22N 45°14' E 036°29'410.3
2017-Oct-10 08:59N 45°18' E 036°29'4 9.4
2017-Oct-10 08:30N 45°20' E 036°35'5 9.3
2017-Oct-10 08:00N 45°22' E 036°41'0 0.8
2017-Oct-10 07:28N 45°22' E 036°41'0 0.0
2017-Oct-10 07:00N 45°22' E 036°41'2 4.3
2017-Oct-10 06:30N 45°20' E 036°40'0 0.0
2017-Oct-10 06:00N 45°20' E 036°40'0 0.0
2017-Oct-10 05:30N 45°20' E 036°40'0 0.0
2017-Oct-10 05:00N 45°20' E 036°40'0 0.0
2017-Oct-10 04:30N 45°20' E 036°40'0 0.0
2017-Oct-10 04:00N 45°20' E 036°40'0 0.0
2017-Oct-10 03:30N 45°20' E 036°40'0 0.0
2017-Oct-10 03:00N 45°20' E 036°40'0 0.0
2017-Oct-10 02:27N 45°20' E 036°40'0 0.0
2017-Oct-10 02:00N 45°20' E 036°40'0 0.0
2017-Oct-10 01:30N 45°20' E 036°40'0 0.0
2017-Oct-10 01:00N 45°20' E 036°40'0 0.0
2017-Oct-10 00:30N 45°20' E 036°40'0 0.0
2017-Oct-10 00:00N 45°20' E 036°40'0 0.0
2017-Oct-09 23:30N 45°20' E 036°40'0 0.0
2017-Oct-09 23:00N 45°20' E 036°40'0 0.0
2017-Oct-09 22:30N 45°20' E 036°40'0 0.0
2017-Oct-09 22:00N 45°20' E 036°40'0 0.0
2017-Oct-09 21:30N 45°20' E 036°40'0 0.0
2017-Oct-09 21:00N 45°20' E 036°40'0 0.0
2017-Oct-09 20:24N 45°20' E 036°40'0 0.0
2017-Oct-09 20:00N 45°20' E 036°40'0 0.0
2017-Oct-09 19:30N 45°20' E 036°40'0 0.0
2017-Oct-09 18:57N 45°20' E 036°40'0 0.0
2017-Oct-09 18:30N 45°20' E 036°40'0 0.0
2017-Oct-09 18:00N 45°20' E 036°40'0 0.0
2017-Oct-09 17:30N 45°20' E 036°40'1 2.6
2017-Oct-09 17:01N 45°21' E 036°39'611.6
2017-Oct-09 16:30N 45°19' E 036°31'  
Track history (hours):
 
Tides and Currents Weather Stations Pressure Air Temp Water Temp Dewpoint Dewpoint Depression Visibility Wind Speed Wind Dir Waves Ship Positions

Bospor

Last reported at 2017-Oct-19 16:00 UTC. Time now 2017-Oct-19 16:28 UTC.
Position N 45°22' E 036°40'.

Length 26 m; draft 1.8 m.

Type: Pilot. MMSI: 273394060.

Date/timePositionNaut miles runAvg speedWind from/ knotsBaromVisibWave heightAir tempDewpointWater temp
2017-Oct-19 16:00N 45°22' E 036°40'0 0.8
2017-Oct-19 15:30N 45°21' E 036°40'3 6.9
2017-Oct-19 15:00N 45°20' E 036°36'510.0
2017-Oct-19 14:28N 45°17' E 036°29'1 2.6
2017-Oct-19 14:00N 45°16' E 036°29'2 2.7
2017-Oct-19 13:25N 45°18' E 036°29'0 0.6
2017-Oct-19 12:57N 45°17' E 036°29'1 0.9
2017-Oct-19 12:20N 45°17' E 036°29'0 0.9
2017-Oct-19 12:00N 45°16' E 036°29'0 0.4
2017-Oct-19 11:29N 45°17' E 036°29'0 0.4
2017-Oct-19 10:55N 45°17' E 036°29'0 0.9
2017-Oct-19 10:22N 45°16' E 036°29'1 1.3
2017-Oct-19 09:57N 45°17' E 036°29'1 1.3
2017-Oct-19 09:30N 45°17' E 036°29'2 3.1
2017-Oct-19 08:58N 45°16' E 036°29'1 1.8
2017-Oct-19 08:31N 45°17' E 036°29'2 4.8
2017-Oct-19 08:00N 45°19' E 036°31'510.1
2017-Oct-19 07:30N 45°20' E 036°38'2 3.5
2017-Oct-19 07:00N 45°21' E 036°40'1 1.3
2017-Oct-19 06:30N 45°20' E 036°40'0 0.0
2017-Oct-19 06:00N 45°20' E 036°40'0 0.0
2017-Oct-19 05:30N 45°20' E 036°40'0 0.0
2017-Oct-19 05:00N 45°20' E 036°40'0 0.0
2017-Oct-19 04:30N 45°20' E 036°40'1 2.0
2017-Oct-19 04:00N 45°21' E 036°40'0 0.5
2017-Oct-19 03:30N 45°21' E 036°40'3 6.3
2017-Oct-19 03:00N 45°20' E 036°36'6 2.6
2017-Oct-19 00:49N 45°17' E 036°29'0 0.8
2017-Oct-19 00:30N 45°17' E 036°29'1 1.2
2017-Oct-18 23:52N 45°17' E 036°29'1 2.8
2017-Oct-18 23:30N 45°16' E 036°29'1 0.9
2017-Oct-18 22:56N 45°17' E 036°29'0 0.6
2017-Oct-18 22:28N 45°16' E 036°29'2 1.6
2017-Oct-18 21:05N 45°18' E 036°30'110.2
2017-Oct-18 21:00N 45°19' E 036°31'510.4
2017-Oct-18 20:30N 45°20' E 036°38'1 1.0
2017-Oct-18 20:00N 45°21' E 036°39'1 1.8
2017-Oct-18 19:28N 45°20' E 036°40'0 0.0
2017-Oct-18 18:58N 45°20' E 036°40'0 0.0
2017-Oct-18 18:31N 45°20' E 036°40'0 0.0
2017-Oct-18 18:01N 45°20' E 036°40'0 0.0
2017-Oct-18 17:28N 45°20' E 036°40'0 0.0
2017-Oct-18 16:52N 45°20' E 036°40'1 3.4
2017-Oct-18 16:30N 45°21' E 036°40'0 0.4
2017-Oct-18 16:01N 45°21' E 036°40'0 0.8
2017-Oct-18 15:30N 45°21' E 036°40'1 1.3
2017-Oct-18 15:00N 45°20' E 036°40'0 0.0
2017-Oct-18 14:00N 45°20' E 036°40'0 0.0
2017-Oct-18 13:30N 45°20' E 036°40'0 0.0
2017-Oct-18 13:00N 45°20' E 036°40'0 0.0
2017-Oct-18 12:30N 45°20' E 036°40'0 0.2
2017-Oct-18 11:57N 45°20' E 036°40'0 0.0
2017-Oct-18 11:30N 45°20' E 036°40'0 0.4
2017-Oct-18 11:01N 45°20' E 036°40'0 0.1
2017-Oct-18 10:30N 45°20' E 036°40'0 0.0
2017-Oct-18 10:00N 45°20' E 036°40'0 0.0
2017-Oct-18 09:30N 45°20' E 036°40'0 0.0
2017-Oct-18 09:00N 45°20' E 036°40'0 0.0
2017-Oct-18 08:30N 45°20' E 036°40'0 0.0
2017-Oct-18 08:00N 45°20' E 036°40'0 0.0
2017-Oct-18 07:30N 45°20' E 036°40'0 0.0
2017-Oct-18 07:00N 45°20' E 036°40'0 0.0
2017-Oct-18 06:30N 45°20' E 036°40'0 0.0
2017-Oct-18 06:00N 45°20' E 036°40'0 0.0
2017-Oct-18 05:30N 45°20' E 036°40'0 0.0
2017-Oct-18 05:00N 45°20' E 036°40'0 0.0
2017-Oct-18 04:30N 45°20' E 036°40'0 0.0
2017-Oct-18 04:00N 45°20' E 036°40'0 0.0
2017-Oct-18 03:27N 45°20' E 036°40'0 0.0
2017-Oct-18 03:00N 45°20' E 036°40'0 0.0
2017-Oct-18 02:30N 45°20' E 036°40'0 0.0
2017-Oct-18 02:00N 45°20' E 036°40'0 0.0
2017-Oct-18 01:30N 45°20' E 036°40'0 0.0
2017-Oct-18 01:00N 45°20' E 036°40'0 0.0
2017-Oct-18 00:27N 45°20' E 036°40'1 1.8
2017-Oct-18 00:00N 45°21' E 036°39'1 1.5
2017-Oct-17 23:28N 45°20' E 036°40'0 0.0
2017-Oct-17 22:55N 45°20' E 036°40'0 0.0
2017-Oct-17 22:28N 45°20' E 036°40'0 0.0
2017-Oct-17 21:55N 45°20' E 036°40'0 0.0
2017-Oct-17 21:28N 45°20' E 036°40'0 0.0
2017-Oct-17 20:58N 45°20' E 036°40'0 0.0
2017-Oct-17 20:28N 45°20' E 036°40'0 0.0
2017-Oct-17 19:58N 45°20' E 036°40'0 0.0
2017-Oct-17 19:28N 45°20' E 036°40'0 0.0
2017-Oct-17 18:58N 45°20' E 036°40'0 0.0
2017-Oct-17 18:28N 45°20' E 036°40'0 0.0
2017-Oct-17 17:58N 45°20' E 036°40'0 0.0
2017-Oct-17 17:28N 45°20' E 036°40'0 0.0
2017-Oct-17 16:58N 45°20' E 036°40'1 2.6
2017-Oct-17 16:28N 45°21' E 036°41'0 0.0
2017-Oct-17 15:58N 45°21' E 036°41'0 0.0
2017-Oct-17 15:28N 45°21' E 036°41'2 4.8
2017-Oct-17 15:01N 45°20' E 036°38'510.4
2017-Oct-17 14:31N 45°19' E 036°31'3 5.4
2017-Oct-17 14:00N 45°17' E 036°29'1 1.2
2017-Oct-17 13:30N 45°17' E 036°29'1 0.8
2017-Oct-17 12:46N 45°17' E 036°29'0 1.1
2017-Oct-17 12:24N 45°17' E 036°29'0 0.2
2017-Oct-17 12:00N 45°17' E 036°29'0 0.3
2017-Oct-17 11:30N 45°17' E 036°29'0 0.5
2017-Oct-17 10:44N 45°17' E 036°29'0 1.0
2017-Oct-17 10:23N 45°17' E 036°29'0 0.3
2017-Oct-17 09:55N 45°17' E 036°29'1 1.2
2017-Oct-17 09:11N 45°18' E 036°29'0 0.8
2017-Oct-17 08:51N 45°17' E 036°29'1 2.3
2017-Oct-17 08:27N 45°18' E 036°30'4 8.5
2017-Oct-17 08:00N 45°19' E 036°35'4 7.9
2017-Oct-17 07:30N 45°21' E 036°40'0 0.7
2017-Oct-17 07:00N 45°21' E 036°40'0 0.8
2017-Oct-17 06:29N 45°20' E 036°40'0 0.0
2017-Oct-17 06:00N 45°20' E 036°40'0 0.3
2017-Oct-17 05:30N 45°20' E 036°40'0 0.3
2017-Oct-17 04:58N 45°20' E 036°40'0 0.0
2017-Oct-17 04:28N 45°20' E 036°40'0 0.0
2017-Oct-17 03:58N 45°20' E 036°40'0 0.0
2017-Oct-17 03:16N 45°20' E 036°40'0 0.0
2017-Oct-17 02:58N 45°20' E 036°40'0 0.0
2017-Oct-17 02:25N 45°20' E 036°40'0 0.0
2017-Oct-17 01:58N 45°20' E 036°40'0 0.0
2017-Oct-17 01:25N 45°20' E 036°40'0 0.0
2017-Oct-17 00:58N 45°20' E 036°40'0 0.0
2017-Oct-17 00:28N 45°20' E 036°40'0 0.0
2017-Oct-16 23:58N 45°20' E 036°40'0 0.0
2017-Oct-16 23:28N 45°20' E 036°40'0 0.0
2017-Oct-16 22:59N 45°20' E 036°40'0 0.0
2017-Oct-16 22:26N 45°20' E 036°40'0 0.0
2017-Oct-16 21:59N 45°20' E 036°40'0 0.0
2017-Oct-16 21:29N 45°20' E 036°40'0 0.0
2017-Oct-16 20:59N 45°20' E 036°40'0 0.0
2017-Oct-16 20:29N 45°20' E 036°40'0 0.0
2017-Oct-16 19:59N 45°20' E 036°40'0 0.0
2017-Oct-16 19:29N 45°20' E 036°40'0 0.0
2017-Oct-16 18:59N 45°20' E 036°40'0 0.0
2017-Oct-16 18:29N 45°20' E 036°40'0 0.0
2017-Oct-16 17:59N 45°20' E 036°40'0 0.4
2017-Oct-16 17:29N 45°21' E 036°40'0 0.0
2017-Oct-16 16:59N 45°21' E 036°40'0 0.0
2017-Oct-16 16:29N 45°21' E 036°40'0 0.0
2017-Oct-16 15:59N 45°21' E 036°40'0 0.0
2017-Oct-16 15:29N 45°21' E 036°40'0 0.0
2017-Oct-16 14:59N 45°21' E 036°40'0 0.0
2017-Oct-16 14:29N 45°21' E 036°40'0 0.0
2017-Oct-16 13:29N 45°21' E 036°40'0 0.0
2017-Oct-16 12:59N 45°21' E 036°40'0 0.0
2017-Oct-16 12:29N 45°21' E 036°40'0 0.0
2017-Oct-16 11:59N 45°21' E 036°40'0 0.0
2017-Oct-16 11:29N 45°21' E 036°40'0 0.0
2017-Oct-16 10:58N 45°21' E 036°40'0 0.0
2017-Oct-16 10:28N 45°21' E 036°40'0 0.0
2017-Oct-16 09:58N 45°21' E 036°40'0 0.0
2017-Oct-16 09:28N 45°21' E 036°40'0 0.0
2017-Oct-16 08:58N 45°21' E 036°40'0 0.0
2017-Oct-16 08:29N 45°21' E 036°40'0 0.0
2017-Oct-16 07:59N 45°21' E 036°40'0 0.0
2017-Oct-16 07:29N 45°21' E 036°40'0 0.0
2017-Oct-16 07:00N 45°21' E 036°40'0 0.0
2017-Oct-16 06:30N 45°21' E 036°40'0 0.0
2017-Oct-16 06:00N 45°21' E 036°40'0 0.0
2017-Oct-16 05:30N 45°21' E 036°40'0 0.4
2017-Oct-16 05:00N 45°20' E 036°40'0 0.0
2017-Oct-16 04:31N 45°20' E 036°40'0 0.0
2017-Oct-16 04:00N 45°20' E 036°40'0 0.0
2017-Oct-16 03:30N 45°20' E 036°40'0 0.0
2017-Oct-16 03:00N 45°20' E 036°40'0 0.0
2017-Oct-16 02:25N 45°20' E 036°40'0 0.0
2017-Oct-16 01:59N 45°20' E 036°40'0 0.0
2017-Oct-16 01:28N 45°20' E 036°40'0 0.0
2017-Oct-16 00:58N 45°20' E 036°40'0 0.0
2017-Oct-16 00:28N 45°20' E 036°40'0 0.0
2017-Oct-15 23:58N 45°20' E 036°40'0 0.0
2017-Oct-15 23:28N 45°20' E 036°40'0 0.0
2017-Oct-15 22:58N 45°20' E 036°40'0 0.0
2017-Oct-15 22:28N 45°20' E 036°40'0 0.0
2017-Oct-15 22:00N 45°20' E 036°40'0 0.0
2017-Oct-15 21:29N 45°20' E 036°40'0 0.0
2017-Oct-15 20:59N 45°20' E 036°40'0 0.0
2017-Oct-15 20:29N 45°20' E 036°40'0 0.0
2017-Oct-15 19:59N 45°20' E 036°40'0 0.0
2017-Oct-15 19:29N 45°20' E 036°40'0 0.0
2017-Oct-15 18:59N 45°20' E 036°40'0 0.0
2017-Oct-15 18:29N 45°20' E 036°40'0 0.0
2017-Oct-15 17:59N 45°20' E 036°40'0 0.0
2017-Oct-15 17:29N 45°20' E 036°40'0 0.0
2017-Oct-15 16:59N 45°20' E 036°40'0 0.0
2017-Oct-15 16:29N 45°20' E 036°40'0 0.0
2017-Oct-15 15:59N 45°20' E 036°40'1 1.8
2017-Oct-15 15:30N 45°21' E 036°40'0 0.2
2017-Oct-15 15:00N 45°21' E 036°40'9 8.9
2017-Oct-15 13:58N 45°17' E 036°29'0 0.3
2017-Oct-15 13:24N 45°16' E 036°29'1 1.7
2017-Oct-15 13:00N 45°17' E 036°29'2 2.9
2017-Oct-15 12:28N 45°18' E 036°30'4 9.0
2017-Oct-15 12:00N 45°20' E 036°36'3 5.4
2017-Oct-15 11:25N 45°20' E 036°40'0 0.0
2017-Oct-15 10:58N 45°20' E 036°40'0 0.0
2017-Oct-15 10:28N 45°20' E 036°40'0 0.0
2017-Oct-15 09:58N 45°20' E 036°40'0 0.0
2017-Oct-15 09:28N 45°20' E 036°40'0 0.0
2017-Oct-15 08:58N 45°20' E 036°40'0 0.0
2017-Oct-15 08:30N 45°20' E 036°40'0 0.2
2017-Oct-15 08:00N 45°20' E 036°40'1 1.9
2017-Oct-15 07:30N 45°21' E 036°40'0 0.5
2017-Oct-15 06:57N 45°21' E 036°40'1 2.0
2017-Oct-15 06:29N 45°20' E 036°40'0 0.0
2017-Oct-15 05:59N 45°20' E 036°40'0 0.0
2017-Oct-15 05:29N 45°20' E 036°40'0 0.0
2017-Oct-15 04:59N 45°20' E 036°40'0 0.5
2017-Oct-15 04:30N 45°20' E 036°40'1 2.2
2017-Oct-15 04:00N 45°20' E 036°38'1 1.4
2017-Oct-15 03:30N 45°21' E 036°39'1 1.2
2017-Oct-15 02:58N 45°20' E 036°40'0 0.0
2017-Oct-15 02:28N 45°20' E 036°40'0 0.0
2017-Oct-15 01:58N 45°20' E 036°40'0 0.0
2017-Oct-15 01:28N 45°20' E 036°40'0 0.0
2017-Oct-15 01:01N 45°20' E 036°40'1 2.8
2017-Oct-15 00:30N 45°20' E 036°38'2 3.5
2017-Oct-15 00:01N 45°22' E 036°40'1 1.4
2017-Oct-14 23:30N 45°21' E 036°40'1 1.3
2017-Oct-14 22:59N 45°20' E 036°40'0 0.0
2017-Oct-14 22:29N 45°20' E 036°40'0 0.0
2017-Oct-14 21:59N 45°20' E 036°40'0 0.0
2017-Oct-14 21:30N 45°20' E 036°40'0 0.0
2017-Oct-14 20:59N 45°20' E 036°40'0 0.0
2017-Oct-14 20:29N 45°20' E 036°40'0 0.0
2017-Oct-14 19:59N 45°20' E 036°40'0 0.0
2017-Oct-14 19:29N 45°20' E 036°40'0 0.0
2017-Oct-14 18:59N 45°20' E 036°40'0 0.0
2017-Oct-14 18:29N 45°20' E 036°40'0 0.0
2017-Oct-14 17:59N 45°20' E 036°40'1 1.7
2017-Oct-14 17:31N 45°21' E 036°39'610.6
2017-Oct-14 16:59N 45°19' E 036°32'4 4.1
2017-Oct-14 16:01N 45°16' E 036°29'0 1.4
2017-Oct-14 16:00N 45°16' E 036°29'1 1.3
2017-Oct-14 15:21N 45°16' E 036°29'1 0.6
2017-Oct-14 14:28N 45°17' E 036°29'1 1.0
2017-Oct-14 13:30N 45°18' E 036°29'3 6.8
2017-Oct-14 13:00N 45°19' E 036°34'5 9.9
2017-Oct-14 12:30N 45°21' E 036°40'1 2.0
2017-Oct-14 12:00N 45°22' E 036°41'2 3.1
2017-Oct-14 11:31N 45°21' E 036°39'1 1.4
2017-Oct-14 10:58N 45°20' E 036°40'0 0.0
2017-Oct-14 10:28N 45°20' E 036°40'0 0.0
2017-Oct-14 09:58N 45°20' E 036°40'0 0.0
2017-Oct-14 09:28N 45°20' E 036°40'0 0.0
2017-Oct-14 08:58N 45°20' E 036°40'0 0.0
2017-Oct-14 08:25N 45°20' E 036°40'0 0.0
2017-Oct-14 07:59N 45°20' E 036°40'0 0.0
2017-Oct-14 07:30N 45°20' E 036°40'2 3.3
2017-Oct-14 07:00N 45°22' E 036°40'2 2.7
2017-Oct-14 06:25N 45°20' E 036°40'0 0.0
2017-Oct-14 05:58N 45°20' E 036°40'0 0.0
2017-Oct-14 05:25N 45°20' E 036°40'0 0.0
2017-Oct-14 04:58N 45°20' E 036°40'0 0.0
2017-Oct-14 04:28N 45°20' E 036°40'0 0.0
2017-Oct-14 03:58N 45°20' E 036°40'0 0.0
2017-Oct-14 03:28N 45°20' E 036°40'0 0.0
2017-Oct-14 02:58N 45°20' E 036°40'0 0.0
2017-Oct-14 02:28N 45°20' E 036°40'0 0.0
2017-Oct-14 01:58N 45°20' E 036°40'0 0.0
2017-Oct-14 01:28N 45°20' E 036°40'0 0.0
2017-Oct-14 00:55N 45°20' E 036°40'0 0.0
2017-Oct-14 00:28N 45°20' E 036°40'0 0.0
2017-Oct-13 23:58N 45°20' E 036°40'0 0.0
2017-Oct-13 23:28N 45°20' E 036°40'0 0.0
2017-Oct-13 22:58N 45°20' E 036°40'0 0.2
2017-Oct-13 22:29N 45°20' E 036°40'0 0.0
2017-Oct-13 21:59N 45°20' E 036°40'0 0.0
2017-Oct-13 21:29N 45°20' E 036°40'0 0.2
2017-Oct-13 21:00N 45°20' E 036°40'0 0.0
2017-Oct-13 20:30N 45°20' E 036°40'0 0.0
2017-Oct-13 20:00N 45°20' E 036°40'0 0.0
2017-Oct-13 19:30N 45°20' E 036°40'0 0.0
2017-Oct-13 19:00N 45°20' E 036°40'0 0.0
2017-Oct-13 18:30N 45°20' E 036°40'0 0.0
2017-Oct-13 18:00N 45°20' E 036°40'0 0.0
2017-Oct-13 17:30N 45°20' E 036°40'0 0.0
2017-Oct-13 17:00N 45°20' E 036°40'0 0.0
2017-Oct-13 16:30N 45°20' E 036°40'0 0.0
2017-Oct-13 16:00N 45°20' E 036°40'0 0.0
2017-Oct-13 15:30N 45°20' E 036°40'2 4.4
2017-Oct-13 15:01N 45°20' E 036°37'711.1
2017-Oct-13 14:26N 45°17' E 036°29'0 0.3
2017-Oct-13 13:34N 45°17' E 036°29'0 1.4
2017-Oct-13 13:28N 45°17' E 036°29'0 0.4
2017-Oct-13 13:00N 45°17' E 036°29'0 0.5
2017-Oct-13 12:30N 45°17' E 036°29'0 0.5
2017-Oct-13 11:56N 45°17' E 036°29'1 0.9
2017-Oct-13 10:37N 45°16' E 036°28'1 8.7
2017-Oct-13 10:31N 45°17' E 036°29'2 4.0
2017-Oct-13 10:00N 45°18' E 036°30'4 8.3
2017-Oct-13 09:30N 45°20' E 036°36'3 6.3
2017-Oct-13 08:58N 45°20' E 036°40'0 0.0
2017-Oct-13 08:28N 45°20' E 036°40'0 0.0
2017-Oct-13 08:01N 45°20' E 036°40'0 0.0
2017-Oct-13 07:31N 45°20' E 036°40'0 0.0
2017-Oct-13 07:01N 45°20' E 036°40'0 0.0
2017-Oct-13 06:31N 45°20' E 036°40'0 0.0
2017-Oct-13 06:01N 45°20' E 036°40'0 0.0
2017-Oct-13 05:31N 45°20' E 036°40'0 0.0
2017-Oct-13 05:00N 45°20' E 036°40'0 0.0
2017-Oct-13 04:30N 45°20' E 036°40'0 0.0
2017-Oct-13 04:00N 45°20' E 036°40'0 0.0
2017-Oct-13 03:30N 45°20' E 036°40'0 0.0
2017-Oct-13 03:00N 45°20' E 036°40'0 0.0
2017-Oct-13 02:27N 45°20' E 036°40'0 0.0
2017-Oct-13 01:57N 45°20' E 036°40'0 0.0
2017-Oct-13 01:30N 45°20' E 036°40'0 0.0
2017-Oct-13 01:00N 45°20' E 036°40'0 0.0
2017-Oct-13 00:30N 45°20' E 036°40'0 0.0
2017-Oct-13 00:01N 45°20' E 036°40'0 0.0
2017-Oct-12 23:30N 45°20' E 036°40'0 0.0
2017-Oct-12 23:00N 45°20' E 036°40'0 0.0
2017-Oct-12 22:30N 45°20' E 036°40'0 0.0
2017-Oct-12 22:00N 45°20' E 036°40'0 0.0
2017-Oct-12 21:30N 45°20' E 036°40'0 0.0
2017-Oct-12 21:00N 45°20' E 036°40'0 0.0
2017-Oct-12 20:31N 45°20' E 036°40'0 0.0
2017-Oct-12 20:00N 45°20' E 036°40'0 0.0
2017-Oct-12 19:27N 45°20' E 036°40'0 0.0
2017-Oct-12 19:00N 45°20' E 036°40'0 0.0
2017-Oct-12 18:30N 45°20' E 036°40'0 0.0
2017-Oct-12 18:00N 45°20' E 036°40'0 0.0
2017-Oct-12 17:30N 45°20' E 036°40'0 0.0
2017-Oct-12 17:00N 45°20' E 036°40'0 0.0
2017-Oct-12 16:30N 45°20' E 036°40'0 0.0
2017-Oct-12 16:00N 45°20' E 036°40'0 0.0
2017-Oct-12 15:30N 45°20' E 036°40'0 0.0
2017-Oct-12 15:00N 45°20' E 036°40'0 0.0
2017-Oct-12 14:30N 45°20' E 036°40'0 0.0
2017-Oct-12 14:00N 45°20' E 036°40'0 0.0
2017-Oct-12 13:30N 45°20' E 036°40'0 0.0
2017-Oct-12 13:00N 45°20' E 036°40'0 0.0
2017-Oct-12 12:30N 45°20' E 036°40'0 0.0
2017-Oct-12 11:54N 45°20' E 036°40'0 0.0
2017-Oct-12 11:30N 45°20' E 036°40'0 0.0
2017-Oct-12 10:57N 45°20' E 036°40'0 0.0
2017-Oct-12 10:30N 45°20' E 036°40'0 0.0
2017-Oct-12 09:57N 45°20' E 036°40'0 0.0
2017-Oct-12 09:30N 45°20' E 036°40'0 0.0
2017-Oct-12 09:00N 45°20' E 036°40'0 0.0
2017-Oct-12 08:30N 45°20' E 036°40'0 0.0
2017-Oct-12 08:00N 45°20' E 036°40'0 0.0
2017-Oct-12 07:30N 45°20' E 036°40'0 0.0
2017-Oct-12 07:00N 45°20' E 036°40'0 0.0
2017-Oct-12 06:27N 45°20' E 036°40'0 0.0
2017-Oct-12 06:00N 45°20' E 036°40'0 0.0
2017-Oct-12 05:30N 45°20' E 036°40'0 0.0
2017-Oct-12 05:00N 45°20' E 036°40'0 0.0
2017-Oct-12 04:27N 45°20' E 036°40'0 0.0
2017-Oct-12 04:00N 45°20' E 036°40'0 0.0
2017-Oct-12 03:30N 45°20' E 036°40'0 0.0
2017-Oct-12 03:00N 45°20' E 036°40'0 0.0
2017-Oct-12 02:30N 45°20' E 036°40'0 0.0
2017-Oct-12 02:00N 45°20' E 036°40'0 0.0
2017-Oct-12 01:30N 45°20' E 036°40'0 0.0
2017-Oct-12 00:57N 45°20' E 036°40'0 0.0
2017-Oct-12 00:30N 45°20' E 036°40'0 0.0
2017-Oct-12 00:00N 45°20' E 036°40'0 0.0
2017-Oct-11 23:30N 45°20' E 036°40'0 0.0
2017-Oct-11 23:00N 45°20' E 036°40'0 0.0
2017-Oct-11 22:30N 45°20' E 036°40'0 0.0
2017-Oct-11 22:00N 45°20' E 036°40'0 0.0
2017-Oct-11 21:30N 45°20' E 036°40'0 0.0
2017-Oct-11 21:00N 45°20' E 036°40'0 0.0
2017-Oct-11 20:30N 45°20' E 036°40'0 0.0
2017-Oct-11 20:00N 45°20' E 036°40'0 0.0
2017-Oct-11 19:30N 45°20' E 036°40'0 0.0
2017-Oct-11 19:00N 45°20' E 036°40'0 0.0
2017-Oct-11 18:30N 45°20' E 036°40'0 0.0
2017-Oct-11 18:00N 45°20' E 036°40'0 0.0
2017-Oct-11 17:30N 45°20' E 036°40'0 0.0
2017-Oct-11 17:00N 45°20' E 036°40'0 0.0
2017-Oct-11 00:00N 45°20' E 036°40'0 0.0
2017-Oct-10 23:30N 45°20' E 036°40'0 0.0
2017-Oct-10 23:00N 45°20' E 036°40'0 0.0
2017-Oct-10 22:30N 45°20' E 036°40'0 0.0
2017-Oct-10 22:00N 45°20' E 036°40'0 0.0
2017-Oct-10 21:30N 45°20' E 036°40'0 0.0
2017-Oct-10 21:00N 45°20' E 036°40'0 0.0
2017-Oct-10 20:30N 45°20' E 036°40'0 0.0
2017-Oct-10 20:00N 45°20' E 036°40'0 0.0
2017-Oct-10 19:30N 45°20' E 036°40'0 0.0
2017-Oct-10 19:00N 45°20' E 036°40'0 0.0
2017-Oct-10 18:31N 45°20' E 036°40'0 0.0
2017-Oct-10 18:00N 45°20' E 036°40'0 0.0
2017-Oct-10 17:30N 45°20' E 036°40'0 0.0
2017-Oct-10 17:00N 45°20' E 036°40'2 4.8
2017-Oct-10 16:30N 45°20' E 036°37'10 1.4
2017-Oct-10 09:38N 45°11' E 036°31'311.0
2017-Oct-10 09:22N 45°14' E 036°29'410.3
2017-Oct-10 08:59N 45°18' E 036°29'4 9.4
2017-Oct-10 08:30N 45°20' E 036°35'5 9.3
2017-Oct-10 08:00N 45°22' E 036°41'0 0.8
2017-Oct-10 07:28N 45°22' E 036°41'0 0.0
2017-Oct-10 07:00N 45°22' E 036°41'2 4.3
2017-Oct-10 06:30N 45°20' E 036°40'0 0.0
2017-Oct-10 06:00N 45°20' E 036°40'0 0.0
2017-Oct-10 05:30N 45°20' E 036°40'0 0.0
2017-Oct-10 05:00N 45°20' E 036°40'0 0.0
2017-Oct-10 04:30N 45°20' E 036°40'0 0.0
2017-Oct-10 04:00N 45°20' E 036°40'0 0.0
2017-Oct-10 03:30N 45°20' E 036°40'0 0.0
2017-Oct-10 03:00N 45°20' E 036°40'0 0.0
2017-Oct-10 02:27N 45°20' E 036°40'0 0.0
2017-Oct-10 02:00N 45°20' E 036°40'0 0.0
2017-Oct-10 01:30N 45°20' E 036°40'0 0.0
2017-Oct-10 01:00N 45°20' E 036°40'0 0.0
2017-Oct-10 00:30N 45°20' E 036°40'0 0.0
2017-Oct-10 00:00N 45°20' E 036°40'0 0.0
2017-Oct-09 23:30N 45°20' E 036°40'0 0.0
2017-Oct-09 23:00N 45°20' E 036°40'0 0.0
2017-Oct-09 22:30N 45°20' E 036°40'0 0.0
2017-Oct-09 22:00N 45°20' E 036°40'0 0.0
2017-Oct-09 21:30N 45°20' E 036°40'0 0.0
2017-Oct-09 21:00N 45°20' E 036°40'0 0.0
2017-Oct-09 20:24N 45°20' E 036°40'0 0.0
2017-Oct-09 20:00N 45°20' E 036°40'0 0.0
2017-Oct-09 19:30N 45°20' E 036°40'0 0.0
2017-Oct-09 18:57N 45°20' E 036°40'0 0.0
2017-Oct-09 18:30N 45°20' E 036°40'0 0.0
2017-Oct-09 18:00N 45°20' E 036°40'0 0.0
2017-Oct-09 17:30N 45°20' E 036°40'1 2.6
2017-Oct-09 17:01N 45°21' E 036°39'611.6
2017-Oct-09 16:30N 45°19' E 036°31'  

Dump ship's entire track history